Time;durP1;ratioP1;P1;durP2;ratioP2;P2;SDS_P1;SDS_P2;PMS_P1;PMS_P2;Temp;Humidity;BMP_temperature;BMP_pressure;BME280_temperature;BME280_humidity;BME280_pressure;Samples;Min_cycle;Max_cycle;Signal;HPM_P1;HPM_P2
2022/09/27 00:00:42;;;;;;;19.23;8.90;;;;;;;18.91;61.45;98710.22;3145267;28;20048;-63
2022/09/27 00:02:14;;;;;;;22.48;9.75;;;;;;;18.91;61.88;98702.28;3145041;28;20123;-62
2022/09/27 00:03:46;;;;;;;16.35;8.70;;;;;;;18.90;62.35;98697.97;3144869;28;20045;-62
2022/09/27 00:05:17;;;;;;;13.68;8.77;;;;;;;18.88;62.59;98694.69;3144791;28;20139;-62
2022/09/27 00:06:49;;;;;;;15.57;9.57;;;;;;;18.82;62.82;98696.91;3144983;28;20147;-63
2022/09/27 00:08:20;;;;;;;17.13;9.48;;;;;;;18.82;62.80;98698.75;3144605;28;20067;-62
2022/09/27 00:09:52;;;;;;;19.73;9.88;;;;;;;18.80;63.28;98693.59;3144801;28;20482;-62
2022/09/27 00:11:27;;;;;;;17.05;10.02;;;;;;;18.81;63.63;98692.63;3145012;28;20075;-63
2022/09/27 00:12:59;;;;;;;12.23;8.65;;;;;;;18.82;63.86;98683.72;3145123;28;20056;-63
2022/09/27 00:14:31;;;;;;;14.73;9.05;;;;;;;18.84;64.04;98688.84;3144831;28;20546;-63
2022/09/27 00:16:04;;;;;;;16.05;8.68;;;;;;;18.82;64.25;98690.81;3147283;28;20086;-63
2022/09/27 00:17:36;;;;;;;11.23;7.97;;;;;;;18.68;64.69;98664.91;3144992;28;20143;-63
2022/09/27 00:19:12;;;;;;;11.82;8.23;;;;;;;18.76;65.31;98686.97;3144814;28;20079;-63
2022/09/27 00:20:43;;;;;;;19.27;8.50;;;;;;;18.72;65.52;98682.09;3144909;28;20144;-64
2022/09/27 00:22:15;;;;;;;17.27;8.52;;;;;;;18.67;66.02;98681.72;3144727;28;20461;-63
2022/09/27 00:23:47;;;;;;;17.08;9.52;;;;;;;18.63;66.39;98678.53;3144862;28;20044;-63
2022/09/27 00:25:18;;;;;;;14.65;8.13;;;;;;;18.59;66.56;98678.00;3144728;28;20086;-63
2022/09/27 00:26:52;;;;;;;15.82;8.65;;;;;;;18.62;66.29;98676.88;3144740;28;20052;-63
2022/09/27 00:28:23;;;;;;;12.35;8.15;;;;;;;18.60;66.61;98684.09;3144934;28;20045;-62
2022/09/27 00:29:54;;;;;;;15.43;7.82;;;;;;;18.58;66.85;98675.53;3144656;28;20118;-62
2022/09/27 00:31:28;;;;;;;13.68;8.18;;;;;;;18.62;66.83;98685.63;3144775;28;20106;-62
2022/09/27 00:32:59;;;;;;;;;;;;;;;18.61;67.00;98691.06;3144949;28;20137;-61
2022/09/27 00:34:31;;;;;;;15.68;9.05;;;;;;;18.61;66.83;98699.78;3144323;28;19920;-62
2022/09/27 00:36:04;;;;;;;11.65;8.77;;;;;;;18.60;67.45;98702.56;3144642;28;20102;-62
2022/09/27 00:37:36;;;;;;;15.88;8.48;;;;;;;18.60;67.76;98702.56;3144852;28;20060;-61
2022/09/27 00:39:09;;;;;;;13.13;8.40;;;;;;;18.53;68.16;98685.69;3144199;28;20052;-62
2022/09/27 00:40:41;;;;;;;14.45;9.32;;;;;;;18.58;68.24;98694.00;3144642;28;20537;-61
2022/09/27 00:42:15;;;;;;;14.43;8.87;;;;;;;18.62;68.16;98693.53;3144521;28;20090;-62
2022/09/27 00:43:48;;;;;;;;;;;;;;;18.61;68.16;98691.06;3145133;28;20563;-63
2022/09/27 00:45:20;;;;;;;13.93;8.23;;;;;;;18.56;68.42;98678.31;3144317;28;19927;-62
2022/09/27 00:47:02;;;;;;;12.57;9.05;;;;;;;18.64;68.25;98690.75;3144214;28;20067;-62
2022/09/27 00:48:37;;;;;;;9.95;8.70;;;;;;;18.65;68.19;98684.50;3136027;28;20430;-62
2022/09/27 00:50:21;;;;;;;18.23;8.93;;;;;;;18.64;68.18;98667.03;3132197;28;20118;-61
2022/09/27 00:51:58;;;;;;;17.38;9.07;;;;;;;18.65;68.09;98669.50;3141402;28;20488;-62
2022/09/27 00:53:33;;;;;;;12.20;8.40;;;;;;;18.63;68.03;98666.22;3144506;28;20533;-61
2022/09/27 00:55:09;;;;;;;12.82;7.80;;;;;;;18.67;68.22;98665.91;3144341;28;20083;-61
2022/09/27 00:56:43;;;;;;;13.10;8.55;;;;;;;18.64;68.14;98662.59;3144642;28;20080;-61
2022/09/27 00:58:21;;;;;;;13.43;7.85;;;;;;;18.65;68.23;98666.88;3144674;28;20048;-61
2022/09/27 00:59:58;;;;;;;13.77;8.80;;;;;;;18.59;68.29;98661.38;3139591;28;20048;-61
2022/09/27 01:01:30;;;;;;;12.13;8.30;;;;;;;18.59;69.36;98669.28;3144587;28;20041;-60
2022/09/27 01:03:06;;;;;;;12.65;8.40;;;;;;;18.53;70.34;98668.06;3143906;28;20045;-61
2022/09/27 01:04:39;;;;;;;12.50;8.23;;;;;;;18.51;70.40;98663.91;3143635;28;20135;-61
2022/09/27 01:06:11;;;;;;;;;;;;;;;18.47;70.65;98665.19;3143481;28;20310;-61
2022/09/27 01:07:43;;;;;;;12.48;8.73;;;;;;;18.46;70.03;98661.72;3143502;28;19924;-61
2022/09/27 01:09:15;;;;;;;18.60;9.35;;;;;;;18.47;70.57;98666.00;3143756;28;20482;-61
2022/09/27 01:10:58;;;;;;;11.00;8.30;;;;;;;18.47;70.55;98650.19;3143921;28;20456;-62
2022/09/27 01:12:38;;;;;;;11.48;8.30;;;;;;;18.49;70.57;98644.78;3143444;28;20567;-62
2022/09/27 01:14:38;;;;;;;11.98;8.02;;;;;;;18.51;70.59;98656.81;3143440;28;20090;-61
2022/09/27 01:16:16;;;;;;;11.90;8.25;;;;;;;18.52;70.59;98649.75;3146414;28;20056;-62
2022/09/27 01:18:00;;;;;;;10.50;9.00;;;;;;;18.51;70.63;98661.25;3143788;28;20094;-62
2022/09/27 01:20:06;;;;;;;12.35;9.10;;;;;;;18.50;71.00;98668.34;3144057;28;20059;-61
2022/09/27 01:21:45;;;;;;;13.02;8.68;;;;;;;18.51;70.81;98672.63;3143621;28;20147;-61
2022/09/27 01:23:42;;;;;;;10.73;7.55;;;;;;;18.52;70.91;98662.94;3143598;28;20044;-62
2022/09/27 01:25:35;;;;;;;17.27;9.10;;;;;;;18.53;70.92;98664.59;3143310;28;20445;-62
2022/09/27 01:27:38;;;;;;;12.80;8.23;;;;;;;18.55;71.05;98673.19;3143865;28;20119;-62
2022/09/27 01:29:15;;;;;;;10.88;7.93;;;;;;;18.56;70.85;98669.56;3145691;28;20386;-61
2022/09/27 01:30:54;;;;;;;11.50;8.48;;;;;;;18.57;70.85;98652.75;3145787;28;20363;-62
2022/09/27 01:32:31;;;;;;;11.98;7.82;;;;;;;18.59;70.75;98653.44;3145859;28;20048;-62
2022/09/27 01:34:10;;;;;;;11.93;7.85;;;;;;;18.60;71.00;98655.09;3146787;28;20178;-62
2022/09/27 01:35:56;;;;;;;12.70;7.65;;;;;;;18.61;71.08;98654.97;3146798;28;20048;-62
2022/09/27 01:37:38;;;;;;;9.77;7.75;;;;;;;18.62;71.14;98655.78;3146782;28;20052;-62
2022/09/27 01:39:23;;;;;;;12.52;8.60;;;;;;;18.64;71.03;98662.59;3146494;28;20056;-61
2022/09/27 01:41:00;;;;;;;13.60;7.85;;;;;;;18.65;71.03;98663.41;3146460;28;20048;-61
2022/09/27 01:42:39;;;;;;;13.75;7.80;;;;;;;18.67;70.96;98674.66;3146719;28;20872;-61
2022/09/27 01:44:15;;;;;;;12.07;8.13;;;;;;;18.67;70.90;98677.28;3146554;28;20056;-62
2022/09/27 01:45:53;;;;;;;10.18;7.75;;;;;;;18.67;71.05;98677.28;3146867;28;20057;-61
2022/09/27 01:47:32;;;;;;;9.80;8.10;;;;;;;18.68;71.17;98678.94;3146578;28;20576;-61
2022/09/27 01:49:09;;;;;;;9.68;7.93;;;;;;;18.63;71.63;98670.63;3146305;28;20510;-63
2022/09/27 01:50:44;;;;;;;11.30;7.90;;;;;;;18.59;71.89;98664.00;3146987;28;20428;-62
2022/09/27 01:52:21;;;;;;;8.60;7.50;;;;;;;18.60;71.70;98660.38;3133939;28;20143;-62
2022/09/27 01:53:56;;;;;;;11.10;7.55;;;;;;;18.59;71.58;98659.56;3146004;28;20113;-62
2022/09/27 01:55:32;;;;;;;13.15;7.20;;;;;;;18.55;71.61;98652.09;3146746;28;20110;-62
2022/09/27 01:57:07;;;;;;;8.95;7.45;;;;;;;18.62;71.51;98656.63;3146343;28;20110;-62
2022/09/27 01:58:44;;;;;;;11.20;7.82;;;;;;;18.63;71.71;98654.81;3149606;28;20473;-62
2022/09/27 02:00:16;;;;;;;10.25;7.30;;;;;;;18.63;71.70;98662.72;3148256;28;20135;-62
2022/09/27 02:01:52;;;;;;;10.13;8.10;;;;;;;18.64;71.54;98661.75;3146341;28;20048;-62
2022/09/27 02:03:28;;;;;;;9.82;7.68;;;;;;;18.63;71.71;98665.34;3146892;28;20048;-62
2022/09/27 02:05:04;;;;;;;11.80;8.40;;;;;;;18.61;71.93;98656.78;3146436;28;20052;-62
2022/09/27 02:06:39;;;;;;;9.70;7.32;;;;;;;18.62;71.51;98651.34;3146631;28;20097;-63
2022/09/27 02:08:16;;;;;;;12.02;7.35;;;;;;;18.62;71.91;98646.06;3146333;28;20459;-63
2022/09/27 02:09:53;;;;;;;10.45;8.27;;;;;;;18.62;71.91;98640.78;3146710;28;20651;-64
2022/09/27 02:11:24;;;;;;;10.23;8.05;;;;;;;18.61;71.79;98639.16;3146469;28;20052;-63
2022/09/27 02:13:01;;;;;;;10.27;8.02;;;;;;;18.64;72.03;98627.47;3146420;28;20583;-63
2022/09/27 02:14:39;;;;;;;10.65;8.05;;;;;;;18.63;72.31;98623.16;3146655;28;20070;-63
2022/09/27 02:16:21;;;;;;;10.23;7.68;;;;;;;18.63;72.22;98620.53;3143512;28;20093;-63
2022/09/27 02:18:00;;;;;;;12.23;8.07;;;;;;;18.63;72.00;98626.66;3134264;28;20068;-63
2022/09/27 02:19:39;;;;;;;12.15;7.85;;;;;;;18.62;72.00;98626.78;3134076;28;20045;-63
2022/09/27 02:21:14;;;;;;;9.50;7.30;;;;;;;18.63;71.92;98633.72;3133923;28;20057;-63
2022/09/27 02:22:51;;;;;;;10.93;6.95;;;;;;;18.64;72.00;98628.31;3145714;28;20044;-63
2022/09/27 02:24:31;;;;;;;9.57;7.40;;;;;;;18.62;72.17;98626.78;3146339;28;20491;-63
2022/09/27 02:26:10;;;;;;;11.45;7.63;;;;;;;18.62;71.78;98635.53;3146317;28;20127;-63
2022/09/27 02:27:52;;;;;;;11.95;8.00;;;;;;;18.65;72.08;98632.59;3146149;28;20056;-62
2022/09/27 02:29:32;;;;;;;14.25;7.70;;;;;;;18.67;72.02;98644.81;3146055;28;20528;-62
2022/09/27 02:31:04;;;;;;;11.60;7.95;;;;;;;18.67;71.90;98650.91;3145985;28;20048;-63
2022/09/27 02:32:35;;;;;;;14.10;8.55;;;;;;;18.65;72.26;98658.13;3146366;28;20048;-62
2022/09/27 02:34:14;;;;;;;11.73;8.40;;;;;;;18.62;72.20;98656.63;3146187;28;20082;-62
2022/09/27 02:35:46;;;;;;;15.38;8.15;;;;;;;18.63;72.19;98662.72;3146339;28;20505;-63
2022/09/27 02:37:18;;;;;;;11.48;7.78;;;;;;;18.62;72.07;98661.88;3146114;28;20060;-63
2022/09/27 02:38:50;;;;;;;13.10;9.00;;;;;;;18.62;71.98;98668.97;3145221;28;20525;-62
2022/09/27 02:40:22;;;;;;;17.80;10.13;;;;;;;18.50;72.33;98667.53;3146327;28;20080;-63
2022/09/27 02:41:57;;;;;;;14.80;9.40;;;;;;;18.41;72.59;98667.41;3145966;28;20048;-62
2022/09/27 02:43:32;;;;;;;15.98;10.07;;;;;;;18.35;72.81;98668.00;3146105;28;20045;-62
2022/09/27 02:45:06;;;;;;;13.68;9.02;;;;;;;18.28;73.11;98674.84;3146059;28;20086;-62
2022/09/27 02:46:51;;;;;;;12.57;9.50;;;;;;;18.25;73.18;98680.41;3146093;28;20056;-61
2022/09/27 02:48:35;;;;;;;15.00;9.75;;;;;;;18.15;73.60;98680.44;3133863;28;20098;-62
2022/09/27 02:50:28;;;;;;;13.05;9.00;;;;;;;18.08;73.84;98665.38;3133496;28;20049;-62
2022/09/27 02:52:12;;;;;;;16.92;9.07;;;;;;;18.08;73.63;98657.47;3143656;28;20048;-62
2022/09/27 02:53:56;;;;;;;17.67;9.60;;;;;;;18.02;73.81;98644.88;3145825;28;20593;-62
2022/09/27 02:55:41;;;;;;;10.45;8.45;;;;;;;18.07;73.38;98647.88;3145995;28;20060;-62
2022/09/27 02:57:29;;;;;;;10.45;8.40;;;;;;;18.05;73.62;98652.50;3145918;28;20048;-62
2022/09/27 02:59:11;;;;;;;11.60;8.70;;;;;;;18.04;73.65;98653.44;3139690;28;20045;-62
2022/09/27 03:00:50;;;;;;;16.85;8.85;;;;;;;18.02;73.78;98663.31;3145640;28;20462;-63
2022/09/27 03:02:30;;;;;;;11.77;8.50;;;;;;;17.96;73.93;98654.19;3146065;28;20045;-63
2022/09/27 03:04:07;;;;;;;17.95;8.90;;;;;;;17.93;74.05;98663.19;3145482;28;20478;-62
2022/09/27 03:05:43;;;;;;;13.48;8.15;;;;;;;17.92;73.97;98650.16;3145918;28;20049;-64
2022/09/27 03:07:16;;;;;;;11.85;8.27;;;;;;;17.93;73.73;98650.03;3145204;28;20530;-63
2022/09/27 03:08:49;;;;;;;10.23;7.68;;;;;;;17.90;73.93;98647.69;3145673;28;20060;-63
2022/09/27 03:10:22;;;;;;;13.63;8.33;;;;;;;17.82;74.09;98639.66;3145877;28;20517;-63
2022/09/27 03:11:54;;;;;;;14.40;8.73;;;;;;;17.82;74.25;98638.84;3148993;28;20698;-63
2022/09/27 03:13:26;;;;;;;10.18;7.90;;;;;;;17.81;74.13;98640.66;3153256;28;20045;-64
2022/09/27 03:14:59;;;;;;;13.52;8.77;;;;;;;17.70;74.59;98633.72;3145671;28;20461;-63
2022/09/27 03:16:31;;;;;;;14.60;8.80;;;;;;;17.69;74.64;98636.50;3145672;28;20131;-62
2022/09/27 03:18:03;;;;;;;10.50;8.77;;;;;;;17.67;74.66;98633.16;3145393;28;20048;-63
2022/09/27 03:19:35;;;;;;;11.95;8.38;;;;;;;17.68;74.46;98633.00;3145868;28;20757;-64
2022/09/27 03:21:07;;;;;;;12.93;8.77;;;;;;;17.68;74.42;98630.38;3145549;28;20779;-63
2022/09/27 03:22:39;;;;;;;14.65;8.93;;;;;;;17.68;74.41;98622.47;3145735;28;20084;-63
2022/09/27 03:24:11;;;;;;;10.63;8.60;;;;;;;17.69;74.27;98626.78;3144943;28;20044;-63
2022/09/27 03:25:42;;;;;;;14.52;8.52;;;;;;;17.71;74.30;98627.47;3145125;28;20418;-63
2022/09/27 03:27:14;;;;;;;15.13;8.77;;;;;;;17.73;74.16;98625.53;3144939;28;20058;-62
2022/09/27 03:28:45;;;;;;;10.07;8.02;;;;;;;17.74;73.93;98627.16;3145614;28;20137;-63
2022/09/27 03:30:17;;;;;;;11.32;9.07;;;;;;;17.73;73.97;98616.78;3145275;28;20052;-63
2022/09/27 03:31:48;;;;;;;13.07;8.93;;;;;;;17.72;73.95;98626.50;3145425;28;20090;-63
2022/09/27 03:33:20;;;;;;;15.38;8.80;;;;;;;17.73;73.89;98629.97;3145147;28;20533;-63
2022/09/27 03:34:53;;;;;;;13.02;8.48;;;;;;;17.70;74.19;98638.97;3145281;28;20055;-62
2022/09/27 03:36:27;;;;;;;16.40;8.50;;;;;;;17.72;73.80;98636.22;3144608;28;20485;-63
2022/09/27 03:37:59;;;;;;;14.63;8.70;;;;;;;17.73;73.78;98627.31;3143924;28;20052;-63
2022/09/27 03:39:32;;;;;;;16.55;8.98;;;;;;;17.70;73.90;98625.00;3143915;28;20464;-63
2022/09/27 03:41:03;;;;;;;11.73;8.30;;;;;;;17.71;73.68;98616.09;3144578;28;20113;-63
2022/09/27 03:42:34;;;;;;;14.23;8.25;;;;;;;17.74;73.47;98623.72;3144531;28;20306;-63
2022/09/27 03:44:07;;;;;;;10.85;7.10;;;;;;;17.72;73.43;98610.72;3144143;28;20048;-63
2022/09/27 03:45:37;;;;;;;12.63;7.60;;;;;;;17.73;73.50;98604.47;3144628;28;20051;-63
2022/09/27 03:47:09;;;;;;;9.25;7.07;;;;;;;17.73;73.27;98603.63;3144376;28;20056;-63
2022/09/27 03:48:41;;;;;;;14.45;7.90;;;;;;;17.70;73.28;98598.66;3144500;28;20098;-63
2022/09/27 03:50:14;;;;;;;10.10;7.60;;;;;;;17.71;73.03;98595.03;3143307;28;20063;-64
2022/09/27 03:51:47;;;;;;;9.98;7.28;;;;;;;17.70;73.12;98602.13;3144530;28;20063;-63
2022/09/27 03:53:19;;;;;;;12.23;7.53;;;;;;;17.64;73.11;98593.97;3143851;28;20044;-64
2022/09/27 03:54:51;;;;;;;11.05;7.47;;;;;;;17.67;73.00;98599.78;3144336;28;20113;-64
2022/09/27 03:56:23;;;;;;;9.98;7.00;;;;;;;17.69;72.85;98597.00;3144119;28;20432;-63
2022/09/27 03:57:54;;;;;;;12.38;6.82;;;;;;;17.67;73.12;98593.69;3145141;28;20045;-63
2022/09/27 03:59:26;;;;;;;13.05;7.90;;;;;;;17.68;72.83;98600.59;3139127;28;20071;-63
2022/09/27 04:00:57;;;;;;;10.55;7.25;;;;;;;17.69;72.61;98603.09;3137309;28;20057;-63
2022/09/27 04:02:29;;;;;;;11.73;7.93;;;;;;;17.69;72.61;98603.09;3144611;28;20060;-63
2022/09/27 04:04:01;;;;;;;12.32;7.47;;;;;;;17.72;72.48;98607.25;3143812;28;20579;-63
2022/09/27 04:05:32;;;;;;;13.10;6.88;;;;;;;17.70;72.59;98610.00;3144584;28;20135;-62
2022/09/27 04:07:05;;;;;;;10.73;7.10;;;;;;;17.70;72.53;98617.91;3144833;28;20459;-63
2022/09/27 04:08:37;;;;;;;11.10;7.25;;;;;;;17.68;72.48;98609.31;3142534;28;20052;-63
2022/09/27 04:10:09;;;;;;;12.60;6.88;;;;;;;17.65;72.62;98599.06;3144096;28;20071;-62
2022/09/27 04:11:41;;;;;;;11.48;6.88;;;;;;;17.67;72.36;98591.03;3146074;28;20052;-61
2022/09/27 04:13:13;;;;;;;10.77;6.57;;;;;;;17.67;72.23;98581.34;3145389;28;20598;-61
2022/09/27 04:14:45;;;;;;;11.45;7.32;;;;;;;17.68;72.35;98575.09;3145429;28;20162;-60
2022/09/27 04:16:17;;;;;;;12.68;7.18;;;;;;;17.68;72.13;98580.34;3144703;28;20450;-60
2022/09/27 04:17:49;;;;;;;9.43;6.97;;;;;;;17.67;72.07;98588.41;3144926;28;20080;-61
2022/09/27 04:19:22;;;;;;;10.57;7.18;;;;;;;17.66;72.10;98581.50;3144866;28;20161;-59
2022/09/27 04:20:52;;;;;;;18.30;7.28;;;;;;;17.62;72.30;98588.84;3144657;28;20128;-61
2022/09/27 04:22:26;;;;;;;12.07;6.57;;;;;;;17.60;72.21;98580.28;3144725;28;20047;-62
2022/09/27 04:23:57;;;;;;;11.57;7.57;;;;;;;17.55;72.26;98590.38;3144870;28;20106;-61
2022/09/27 04:25:31;;;;;;;11.50;7.90;;;;;;;17.51;72.45;98584.59;3144774;28;20453;-61
2022/09/27 04:27:03;;;;;;;12.43;7.18;;;;;;;17.49;72.45;98589.16;3144573;28;20053;-61
2022/09/27 04:28:35;;;;;;;14.98;7.35;;;;;;;17.47;72.32;98583.19;3145025;28;20080;-61
2022/09/27 04:30:09;;;;;;;17.80;8.05;;;;;;;17.49;72.43;98586.53;3144972;28;20057;-60
2022/09/27 04:31:42;;;;;;;13.77;7.78;;;;;;;17.48;72.35;98595.41;3144676;28;20049;-60
2022/09/27 04:33:14;;;;;;;;;;;;;;;17.47;72.25;98588.47;3145265;28;20080;-60
2022/09/27 04:36:36;;;;;;;28.33;16.95;;;;;;;17.49;72.18;98586.53;3144566;28;20044;-61
2022/09/27 04:38:09;;;;;;;40.90;23.63;;;;;;;17.54;72.30;98587.88;3144220;28;20119;-60
2022/09/27 04:39:41;;;;;;;22.33;10.38;;;;;;;17.57;72.14;98592.88;3134468;28;20514;-59
2022/09/27 04:41:13;;;;;;;15.27;8.02;;;;;;;17.60;71.97;98598.69;3144422;28;20048;-58
2022/09/27 04:42:45;;;;;;;14.05;7.90;;;;;;;17.61;71.73;98587.19;3144983;28;20597;-59
2022/09/27 04:44:17;;;;;;;12.52;7.13;;;;;;;17.63;71.82;98579.97;3143978;28;20055;-60
2022/09/27 04:45:48;;;;;;;14.48;7.20;;;;;;;17.61;71.97;98578.47;3144518;28;20044;-60
2022/09/27 04:47:20;;;;;;;14.73;7.10;;;;;;;17.64;71.70;98578.16;3144451;28;20048;-59
2022/09/27 04:48:51;;;;;;;14.27;7.68;;;;;;;17.66;71.48;98563.06;3144491;28;20048;-58
2022/09/27 04:50:23;;;;;;;18.67;7.45;;;;;;;17.68;71.35;98569.00;3144373;28;20048;-60
2022/09/27 04:51:55;;;;;;;17.08;7.32;;;;;;;17.55;71.24;98544.81;3144199;28;20044;-60
2022/09/27 04:53:28;;;;;;;12.70;7.30;;;;;;;17.73;71.22;98572.03;3144287;28;20135;-61
2022/09/27 04:55:00;;;;;;;;;;;;;;;17.72;70.99;98579.09;3144315;28;20072;-62
2022/09/27 04:56:32;;;;;;;14.98;7.53;;;;;;;17.76;71.03;98570.91;3144921;28;19928;-62
2022/09/27 04:58:04;;;;;;;19.77;8.02;;;;;;;17.76;70.99;98569.13;3140846;28;20069;-62
2022/09/27 04:59:35;;;;;;;12.50;7.50;;;;;;;17.79;71.07;98565.41;3141528;28;20048;-63
2022/09/27 05:01:08;;;;;;;14.55;7.53;;;;;;;17.78;71.04;98561.94;3142598;28;20060;-62
2022/09/27 05:02:39;;;;;;;15.40;7.15;;;;;;;17.81;71.04;98564.28;3143366;28;20053;-62
2022/09/27 05:04:11;;;;;;;12.13;7.38;;;;;;;17.84;71.01;98564.00;3142649;28;20440;-63
2022/09/27 05:05:43;;;;;;;13.38;7.38;;;;;;;17.82;71.10;98563.28;3143817;28;20056;-62
2022/09/27 05:07:15;;;;;;;17.80;7.63;;;;;;;17.89;70.87;98569.63;3143236;28;20044;-62
2022/09/27 05:08:48;;;;;;;18.50;8.40;;;;;;;17.88;70.91;98575.06;3143403;28;20588;-63
2022/09/27 05:10:20;;;;;;;12.32;7.25;;;;;;;17.93;70.74;98572.81;3143406;28;20511;-62
2022/09/27 05:11:52;;;;;;;19.52;8.45;;;;;;;17.95;70.64;98565.59;3144357;28;20047;-63
2022/09/27 05:13:24;;;;;;;22.67;9.05;;;;;;;17.98;70.59;98557.38;3143279;28;20139;-62
2022/09/27 05:14:55;;;;;;;14.75;7.88;;;;;;;18.01;70.46;98564.16;3143325;28;20053;-64
2022/09/27 05:16:27;;;;;;;15.55;8.18;;;;;;;18.05;70.31;98578.72;3142287;28;20238;-62
2022/09/27 05:17:59;;;;;;;22.08;8.00;;;;;;;18.08;70.32;98584.53;3143048;28;20049;-62
2022/09/27 05:19:31;;;;;;;16.77;7.65;;;;;;;18.13;70.04;98584.06;3143247;28;20159;-62
2022/09/27 05:21:03;;;;;;;16.42;7.60;;;;;;;18.18;70.06;98580.03;3142884;28;20045;-62
2022/09/27 05:22:36;;;;;;;25.42;8.23;;;;;;;18.21;69.76;98585.97;3142949;28;20049;-62
2022/09/27 05:24:10;;;;;;;14.15;7.93;;;;;;;18.25;69.80;98582.06;3142338;28;20125;-61
2022/09/27 05:25:42;;;;;;;15.50;7.05;;;;;;;18.28;69.70;98568.59;3142865;28;20506;-62
2022/09/27 05:27:19;;;;;;;20.40;7.50;;;;;;;18.31;69.54;98568.28;3140132;28;20621;-66
2022/09/27 05:28:51;;;;;;;16.08;9.48;;;;;;;18.31;69.65;98566.50;3141171;28;20368;-65
2022/09/27 05:30:23;;;;;;;14.90;7.88;;;;;;;18.33;69.30;98548.72;3143644;28;20055;-64
2022/09/27 05:31:55;;;;;;;13.15;8.10;;;;;;;18.35;69.23;98551.22;3143581;28;20083;-64
2022/09/27 05:33:27;;;;;;;17.58;8.50;;;;;;;18.37;68.98;98544.81;3143073;28;20048;-62
2022/09/27 05:34:59;;;;;;;17.17;7.70;;;;;;;18.41;68.82;98548.81;3144419;28;20123;-61
2022/09/27 05:36:31;;;;;;;16.92;7.55;;;;;;;18.44;68.46;98552.97;3143737;28;20441;-62
2022/09/27 05:38:03;;;;;;;17.45;7.25;;;;;;;18.46;68.67;98553.66;3144007;28;20067;-63
2022/09/27 05:39:37;;;;;;;15.02;7.82;;;;;;;18.47;68.43;98559.75;3144429;28;20124;-59
2022/09/27 05:41:08;;;;;;;16.45;7.10;;;;;;;18.46;68.19;98558.91;3144067;28;20052;-60
2022/09/27 05:42:39;;;;;;;18.77;7.32;;;;;;;18.44;68.01;98552.13;3143684;28;20052;-61
2022/09/27 05:44:12;;;;;;;20.75;7.70;;;;;;;18.47;68.02;98543.94;3143734;28;20406;-60
2022/09/27 05:45:44;;;;;;;12.93;7.88;;;;;;;18.49;68.13;98536.72;3142885;28;20048;-60
2022/09/27 05:47:16;;;;;;;16.50;7.63;;;;;;;18.52;68.00;98537.22;3143794;28;20044;-62
2022/09/27 05:48:47;;;;;;;17.08;7.53;;;;;;;18.54;67.66;98535.25;3144153;28;20053;-61
2022/09/27 05:50:19;;;;;;;17.38;7.70;;;;;;;18.55;67.85;98536.94;3143933;28;20117;-61
2022/09/27 05:51:51;;;;;;;20.30;7.68;;;;;;;18.59;67.84;98538.25;3143464;28;20049;-62
2022/09/27 05:53:23;;;;;;;17.38;7.57;;;;;;;18.62;67.51;98537.97;3143196;28;20060;-62
2022/09/27 05:54:57;;;;;;;13.63;7.35;;;;;;;18.64;67.19;98545.75;3143872;28;20040;-62
2022/09/27 05:56:28;;;;;;;15.38;7.30;;;;;;;18.66;66.97;98551.66;3143879;28;20060;-62
2022/09/27 05:58:01;;;;;;;16.42;7.60;;;;;;;18.67;66.97;98550.72;3143780;28;20048;-62
2022/09/27 05:59:33;;;;;;;13.75;7.55;;;;;;;18.69;66.89;98548.72;3139824;28;20667;-62
2022/09/27 06:01:07;;;;;;;17.88;7.28;;;;;;;18.71;66.83;98540.69;3142668;28;20048;-62
2022/09/27 06:02:38;;;;;;;12.48;7.28;;;;;;;18.73;66.89;98534.31;3134314;28;20049;-62
2022/09/27 06:04:10;;;;;;;19.67;7.68;;;;;;;18.76;67.01;98539.28;3142722;28;20131;-61
2022/09/27 06:05:42;;;;;;;17.98;7.57;;;;;;;18.77;66.80;98535.66;3142445;28;20509;-62
2022/09/27 06:07:13;;;;;;;21.83;7.50;;;;;;;18.80;66.60;98539.78;3142833;28;20060;-61
2022/09/27 06:08:45;;;;;;;14.23;6.55;;;;;;;18.82;66.58;98538.66;3142703;28;20048;-61
2022/09/27 06:10:19;;;;;;;13.48;7.40;;;;;;;18.85;66.51;98527.00;3142699;28;20087;-63
2022/09/27 06:11:52;;;;;;;17.58;7.05;;;;;;;18.86;66.35;98526.00;3142260;28;20048;-64
2022/09/27 06:13:24;;;;;;;15.13;6.32;;;;;;;18.89;66.16;98538.06;3143818;28;20189;-63
2022/09/27 06:14:56;;;;;;;21.00;7.28;;;;;;;18.89;65.95;98528.31;3144572;28;20049;-60
2022/09/27 06:16:27;;;;;;;14.93;6.38;;;;;;;18.91;65.79;98520.28;3145040;28;20379;-63
2022/09/27 06:18:04;;;;;;;14.27;6.53;;;;;;;18.93;65.48;98526.19;3144553;28;20059;-61
2022/09/27 06:19:36;;;;;;;10.15;6.47;;;;;;;18.93;65.18;98527.06;3145447;28;20099;-65
2022/09/27 06:21:08;;;;;;;15.80;6.20;;;;;;;18.96;64.87;98541.72;3144693;28;20102;-61
2022/09/27 06:22:40;;;;;;;11.75;6.47;;;;;;;18.98;64.94;98547.69;3145357;28;20052;-60
2022/09/27 06:24:12;;;;;;;24.85;6.53;;;;;;;19.03;64.61;98545.41;3139814;28;20501;-61
2022/09/27 06:25:46;;;;;;;11.50;6.63;;;;;;;19.07;64.49;98530.94;3139790;28;20132;-61
2022/09/27 06:27:18;;;;;;;11.68;6.10;;;;;;;19.10;64.43;98522.69;3144923;28;20059;-61
2022/09/27 06:28:50;;;;;;;9.38;5.80;;;;;;;19.14;64.06;98517.94;3145127;28;20056;-60
2022/09/27 06:30:22;;;;;;;13.88;6.43;;;;;;;19.16;64.20;98519.44;3145019;28;20091;-62
2022/09/27 06:31:55;;;;;;;12.98;6.43;;;;;;;19.20;63.88;98536.66;3144711;28;20082;-62
2022/09/27 06:33:28;;;;;;;13.10;6.57;;;;;;;19.25;63.54;98552.00;3144866;28;20158;-62
2022/09/27 06:34:59;;;;;;;12.57;6.00;;;;;;;19.29;63.45;98562.09;3145073;28;20080;-61
2022/09/27 06:36:32;;;;;;;15.27;6.55;;;;;;;19.32;63.54;98564.44;3144959;28;20540;-62
2022/09/27 06:38:06;;;;;;;11.80;6.15;;;;;;;19.37;63.14;98563.13;3144919;28;20048;-61
2022/09/27 06:39:38;;;;;;;15.25;6.88;;;;;;;19.38;63.21;98555.06;3145755;28;20060;-61
2022/09/27 06:41:12;;;;;;;13.73;6.50;;;;;;;19.42;62.97;98555.56;3144849;28;20066;-60
2022/09/27 06:42:44;;;;;;;14.43;5.90;;;;;;;19.42;62.80;98561.69;3146056;28;20056;-61
2022/09/27 06:44:16;;;;;;;16.02;6.50;;;;;;;19.44;62.80;98558.91;3145676;28;20415;-60
2022/09/27 06:45:49;;;;;;;10.10;6.78;;;;;;;19.45;62.56;98560.53;3145978;28;20060;-60
2022/09/27 06:47:22;;;;;;;15.10;6.63;;;;;;;19.45;62.44;98563.19;3145650;28;20048;-60
2022/09/27 06:48:55;;;;;;;;;;;;;;;19.42;62.50;98558.22;3146700;28;20094;-60
2022/09/27 06:50:27;;;;;;;17.20;7.35;;;;;;;19.40;62.52;98549.63;3145903;28;19920;-61
2022/09/27 06:51:59;;;;;;;11.35;7.82;;;;;;;19.41;62.69;98541.56;3145302;28;20048;-61
2022/09/27 06:53:31;;;;;;;15.23;9.52;;;;;;;19.41;62.70;98540.72;3145952;28;20766;-62
2022/09/27 06:55:04;;;;;;;18.38;7.45;;;;;;;19.40;62.74;98531.13;3145810;28;20048;-65
2022/09/27 06:56:37;;;;;;;19.90;8.30;;;;;;;19.44;62.67;98545.69;3146423;28;20045;-61
2022/09/27 07:00:47;;;;;;;22.58;9.10;;;;;;;19.66;62.90;98537.25;3145939;28;20245;-60
2022/09/27 07:02:19;;;;;;;11.07;7.38;;;;;;;19.80;62.48;98545.56;3144486;28;20053;-60
2022/09/27 07:03:51;;;;;;;12.55;7.68;;;;;;;19.92;62.49;98550.41;3144622;28;20110;-60
2022/09/27 07:05:24;;;;;;;13.65;7.60;;;;;;;20.10;62.20;98568.81;3145460;28;20048;-61
2022/09/27 07:06:57;;;;;;;14.20;7.60;;;;;;;20.28;61.78;98567.88;3145778;28;20102;-61
2022/09/27 07:08:29;;;;;;;15.25;7.47;;;;;;;20.46;61.27;98574.69;3145221;28;20063;-60
2022/09/27 07:10:01;;;;;;;15.77;7.93;;;;;;;20.60;60.78;98559.22;3145665;28;20052;-60
2022/09/27 07:11:35;;;;;;;11.52;7.25;;;;;;;20.75;60.40;98554.09;3145901;28;20067;-60
2022/09/27 07:13:10;;;;;;;15.50;7.88;;;;;;;20.88;59.68;98549.97;3145486;28;20056;-60
2022/09/27 07:14:42;;;;;;;15.13;8.25;;;;;;;21.05;59.35;98548.13;3145950;28;20449;-61
2022/09/27 07:16:14;;;;;;;15.50;7.60;;;;;;;21.23;59.17;98552.41;3145620;28;20049;-61
2022/09/27 07:17:45;;;;;;;13.30;8.23;;;;;;;21.37;58.57;98550.94;3145347;28;20518;-61
2022/09/27 07:19:17;;;;;;;18.80;7.80;;;;;;;21.48;57.69;98546.13;3145616;28;20544;-60
2022/09/27 07:20:49;;;;;;;20.73;7.38;;;;;;;21.63;57.25;98543.59;3145944;28;20136;-60
2022/09/27 07:22:21;;;;;;;14.52;6.85;;;;;;;21.75;57.23;98534.28;3144625;28;20053;-61
2022/09/27 07:23:54;;;;;;;18.67;8.13;;;;;;;22.07;56.70;98544.91;3145871;28;20441;-60